Time;durP1;ratioP1;P1;durP2;ratioP2;P2;SDS_P1;SDS_P2;PMS_P1;PMS_P2;Temp;Humidity;BMP_temperature;BMP_pressure;BME280_temperature;BME280_humidity;BME280_pressure;Samples;Min_cycle;Max_cycle;Signal;HPM_P1;HPM_P2
2021/07/16 00:01:25;;;;;;;8.02;7.22;;;24.60;65.00;;;;;;4974318;28;20034;-93
2021/07/16 00:03:51;;;;;;;7.38;6.68;;;24.60;65.50;;;;;;4975418;28;20133;-92
2021/07/16 00:06:17;;;;;;;8.45;7.60;;;24.50;66.10;;;;;;4978136;28;20133;-93
2021/07/16 00:08:43;;;;;;;8.25;7.45;;;24.50;66.60;;;;;;4976816;28;20022;-91
2021/07/16 00:11:09;;;;;;;8.50;7.70;;;24.50;66.90;;;;;;4979310;28;20054;-91
2021/07/16 00:13:35;;;;;;;8.57;7.63;;;24.40;67.20;;;;;;4977599;28;20401;-91
2021/07/16 00:16:01;;;;;;;9.95;7.43;;;24.40;67.60;;;;;;4977475;28;20039;-91
2021/07/16 00:18:26;;;;;;;8.57;7.18;;;24.30;67.70;;;;;;4977534;28;20391;-91
2021/07/16 00:20:52;;;;;;;9.60;8.63;;;24.20;68.10;;;;;;4976966;28;20038;-91
2021/07/16 00:23:18;;;;;;;8.10;7.30;;;24.20;68.70;;;;;;4977614;28;20067;-91
2021/07/16 00:25:44;;;;;;;8.80;7.50;;;24.10;69.20;;;;;;4976744;28;20027;-93
2021/07/16 00:28:09;;;;;;;10.43;8.05;;;24.10;69.40;;;;;;4977010;28;20482;-93
2021/07/16 00:30:36;;;;;;;8.80;7.82;;;24.10;70.00;;;;;;4976719;28;20494;-92
2021/07/16 00:33:04;;;;;;;9.85;7.85;;;24.00;70.30;;;;;;4978165;28;20027;-93
2021/07/16 00:35:30;;;;;;;9.23;7.63;;;24.00;70.80;;;;;;4978698;28;20132;-92
2021/07/16 00:37:56;;;;;;;8.57;7.45;;;23.90;71.00;;;;;;4976980;28;20031;-93
2021/07/16 00:40:22;;;;;;;9.02;8.13;;;23.90;71.40;;;;;;4976923;28;20038;-92
2021/07/16 00:42:48;;;;;;;9.00;7.32;;;23.80;71.80;;;;;;4976426;28;20031;-92
2021/07/16 00:45:14;;;;;;;8.40;7.57;;;23.80;72.10;;;;;;4976477;28;20442;-91
2021/07/16 00:47:41;;;;;;;8.25;7.45;;;23.70;72.30;;;;;;4976705;28;20117;-92
2021/07/16 00:50:10;;;;;;;11.80;9.23;;;23.70;72.70;;;;;;4979206;28;20023;-92
2021/07/16 00:52:37;;;;;;;9.35;8.27;;;23.70;73.00;;;;;;4980442;28;20434;-91
2021/07/16 00:55:05;;;;;;;8.60;7.70;;;23.70;73.10;;;;;;4979611;28;20092;-92
2021/07/16 00:57:30;;;;;;;9.73;7.93;;;23.60;73.20;;;;;;4981380;28;20030;-92
2021/07/16 00:59:56;;;;;;;8.30;7.45;;;23.60;73.50;;;;;;4983499;28;20054;-91
2021/07/16 01:02:23;;;;;;;9.68;8.43;;;23.60;73.50;;;;;;4979321;28;20049;-91
2021/07/16 01:04:49;;;;;;;10.55;8.65;;;23.50;73.70;;;;;;4976711;28;20177;-91
2021/07/16 01:07:15;;;;;;;9.77;8.57;;;23.50;74.10;;;;;;4975965;28;20086;-92
2021/07/16 01:09:40;;;;;;;12.27;8.07;;;23.50;74.10;;;;;;4976271;28;20038;-92
2021/07/16 01:12:06;;;;;;;8.65;7.80;;;23.50;74.10;;;;;;4976223;28;20041;-92
2021/07/16 01:14:32;;;;;;;8.65;7.50;;;23.40;74.10;;;;;;4975433;28;20481;-92
2021/07/16 01:16:59;;;;;;;8.60;7.80;;;23.40;74.10;;;;;;4975657;28;20122;-92
2021/07/16 01:19:49;;;;;;;8.82;7.93;;;23.40;74.20;;;;;;4976140;28;20035;-91
2021/07/16 01:22:16;;;;;;;8.82;7.63;;;23.40;74.30;;;;;;4975754;28;20430;-92
2021/07/16 01:24:42;;;;;;;8.25;7.45;;;23.40;74.50;;;;;;4975959;28;20030;-92
2021/07/16 01:27:08;;;;;;;8.60;7.68;;;23.30;74.50;;;;;;4975481;28;20027;-92
2021/07/16 01:29:35;;;;;;;9.23;7.63;;;23.30;74.50;;;;;;4975659;28;20038;-92
2021/07/16 01:32:02;;;;;;;8.07;7.20;;;23.30;74.60;;;;;;4975387;28;20034;-92
2021/07/16 01:34:28;;;;;;;8.13;7.28;;;23.30;74.80;;;;;;4975908;28;20027;-93
2021/07/16 01:36:54;;;;;;;9.23;8.00;;;23.20;74.90;;;;;;4975654;28;20027;-91
2021/07/16 01:39:20;;;;;;;8.48;7.55;;;23.20;75.10;;;;;;4975135;28;20027;-92
2021/07/16 01:41:46;;;;;;;9.07;7.47;;;23.20;75.10;;;;;;4975631;28;20126;-92
2021/07/16 01:44:11;;;;;;;8.20;7.40;;;23.20;75.20;;;;;;4975085;28;20038;-92
2021/07/16 01:46:37;;;;;;;9.13;7.20;;;23.20;75.40;;;;;;4974936;28;20045;-92
2021/07/16 01:49:04;;;;;;;9.52;7.72;;;23.10;75.50;;;;;;4975418;28;20030;-92
2021/07/16 01:51:30;;;;;;;7.30;6.60;;;23.10;75.60;;;;;;4976250;28;20058;-92
2021/07/16 01:53:58;;;;;;;9.52;7.75;;;23.10;75.80;;;;;;4975376;28;20062;-92
2021/07/16 01:56:24;;;;;;;8.75;7.85;;;23.10;76.00;;;;;;4976131;28;20041;-92
2021/07/16 01:58:49;;;;;;;8.27;7.47;;;23.10;76.20;;;;;;4974954;28;20402;-93
2021/07/16 02:01:16;;;;;;;9.65;7.85;;;23.00;76.30;;;;;;4977330;28;20031;-93
2021/07/16 02:03:45;;;;;;;9.40;8.50;;;23.00;76.40;;;;;;4978128;28;20027;-93
2021/07/16 02:06:12;;;;;;;9.02;8.15;;;23.00;76.60;;;;;;4975539;28;20450;-92
2021/07/16 02:08:40;;;;;;;9.55;8.55;;;22.90;76.50;;;;;;4975391;28;20030;-92
2021/07/16 02:11:06;;;;;;;9.82;8.82;;;22.90;76.50;;;;;;4975382;28;20050;-92
2021/07/16 02:13:32;;;;;;;10.75;7.85;;;22.90;76.40;;;;;;4975050;28;20027;-92
2021/07/16 02:15:58;;;;;;;11.45;7.63;;;22.90;76.40;;;;;;4974976;28;20394;-91
2021/07/16 02:18:24;;;;;;;8.70;7.80;;;22.90;76.00;;;;;;4975526;28;20033;-91
2021/07/16 02:20:52;;;;;;;9.60;7.35;;;22.90;76.20;;;;;;4975506;28;20031;-91
2021/07/16 02:23:20;;;;;;;8.73;7.53;;;23.00;76.00;;;;;;4974358;28;20030;-92
2021/07/16 02:25:47;;;;;;;7.53;6.65;;;22.90;75.90;;;;;;4973542;28;20105;-92
2021/07/16 02:28:17;;;;;;;7.40;6.68;;;22.90;75.90;;;;;;4974183;28;20035;-92
2021/07/16 02:30:42;;;;;;;8.25;7.32;;;22.90;75.90;;;;;;4975549;28;20033;-92
2021/07/16 02:33:08;;;;;;;9.85;8.40;;;23.00;75.80;;;;;;4974495;28;20023;-92
2021/07/16 02:35:34;;;;;;;9.93;8.75;;;23.00;75.70;;;;;;4974380;28;20034;-92
2021/07/16 02:38:01;;;;;;;8.73;6.93;;;23.00;75.80;;;;;;4975677;28;20032;-92
2021/07/16 02:40:27;;;;;;;10.38;8.73;;;23.00;75.90;;;;;;4974101;28;20529;-91
2021/07/16 02:42:53;;;;;;;9.85;8.25;;;23.00;76.00;;;;;;4974702;28;20033;-90
2021/07/16 02:45:22;;;;;;;8.90;8.00;;;23.00;76.10;;;;;;4974585;28;20386;-90
2021/07/16 02:47:49;;;;;;;9.30;7.70;;;23.00;76.70;;;;;;4975874;28;20039;-91
2021/07/16 02:50:23;;;;;;;8.88;7.95;;;23.00;76.20;;;;;;4974681;28;20121;-90
2021/07/16 02:52:50;;;;;;;7.68;6.88;;;23.00;76.50;;;;;;4974771;28;20062;-91
2021/07/16 02:55:16;;;;;;;10.43;7.78;;;23.10;76.40;;;;;;4977198;28;20031;-90
2021/07/16 02:57:42;;;;;;;8.88;7.43;;;23.10;76.60;;;;;;4980723;28;20390;-91
2021/07/16 03:00:13;;;;;;;9.15;7.57;;;23.00;76.50;;;;;;4980042;28;20034;-90
2021/07/16 03:02:41;;;;;;;9.32;7.93;;;23.10;76.60;;;;;;4977364;28;20027;-91
2021/07/16 03:05:09;;;;;;;10.23;7.55;;;23.10;76.60;;;;;;4978326;28;20038;-90
2021/07/16 03:07:35;;;;;;;8.57;7.47;;;23.10;76.50;;;;;;4974477;28;20086;-90
2021/07/16 03:10:01;;;;;;;8.95;7.15;;;23.10;76.50;;;;;;4973783;28;20474;-90
2021/07/16 03:12:27;;;;;;;6.97;6.28;;;23.20;76.40;;;;;;4974684;28;20035;-91
2021/07/16 03:14:52;;;;;;;8.45;6.25;;;23.20;76.20;;;;;;4973955;28;20026;-90
2021/07/16 03:17:18;;;;;;;7.78;6.97;;;23.30;76.20;;;;;;4973822;28;20118;-91
2021/07/16 03:19:44;;;;;;;8.10;6.78;;;23.40;76.00;;;;;;4973668;28;20105;-90
2021/07/16 03:22:12;;;;;;;8.40;6.45;;;23.50;76.00;;;;;;4973526;28;20027;-91
2021/07/16 03:24:38;;;;;;;8.00;7.15;;;23.50;75.80;;;;;;4973355;28;20042;-91
2021/07/16 03:27:04;;;;;;;8.05;6.75;;;23.60;75.70;;;;;;4974576;28;20038;-90
2021/07/16 03:29:30;;;;;;;9.10;7.55;;;23.60;75.60;;;;;;4974858;28;20031;-90
2021/07/16 03:31:56;;;;;;;8.80;7.63;;;23.70;75.40;;;;;;4973355;28;20118;-90
2021/07/16 03:34:21;;;;;;;9.40;7.10;;;23.80;75.20;;;;;;4973508;28;20027;-91
2021/07/16 03:36:47;;;;;;;7.35;6.65;;;23.80;75.00;;;;;;4973220;28;20089;-90
2021/07/16 03:39:13;;;;;;;7.63;6.63;;;23.90;74.70;;;;;;4977182;28;20066;-90
2021/07/16 03:41:38;;;;;;;7.95;7.10;;;23.90;74.40;;;;;;4977210;28;20031;-91
2021/07/16 03:44:04;;;;;;;9.02;7.47;;;24.10;74.30;;;;;;4977485;28;20027;-91
2021/07/16 03:46:30;;;;;;;7.13;6.43;;;24.10;74.00;;;;;;4977340;28;20030;-90
2021/07/16 03:48:56;;;;;;;8.00;6.47;;;24.20;73.60;;;;;;4977375;28;20505;-90
2021/07/16 03:51:23;;;;;;;9.07;7.35;;;24.30;73.50;;;;;;4976947;28;20027;-90
2021/07/16 03:53:49;;;;;;;7.63;6.80;;;24.40;73.00;;;;;;4987302;28;20018;-89
2021/07/16 03:56:14;;;;;;;7.45;6.70;;;24.50;73.00;;;;;;4999332;28;20470;-89
2021/07/16 03:58:41;;;;;;;7.47;6.78;;;24.60;72.80;;;;;;5001439;28;20011;-90
2021/07/16 04:01:07;;;;;;;7.55;6.50;;;24.70;72.70;;;;;;5001291;28;20115;-90
2021/07/16 04:03:32;;;;;;;7.35;6.47;;;24.70;72.30;;;;;;4996651;28;20390;-91
2021/07/16 04:05:58;;;;;;;8.23;7.13;;;24.90;72.20;;;;;;4977369;28;20075;-91
2021/07/16 04:08:24;;;;;;;7.13;6.43;;;25.00;71.70;;;;;;4977155;28;20073;-91
2021/07/16 04:10:50;;;;;;;8.25;6.55;;;25.10;71.50;;;;;;4976906;28;20027;-91
2021/07/16 04:13:15;;;;;;;9.30;6.85;;;25.10;71.30;;;;;;4977311;28;20031;-91
2021/07/16 04:15:42;;;;;;;9.30;7.38;;;25.20;71.10;;;;;;4978155;28;20084;-91
2021/07/16 04:18:10;;;;;;;10.63;6.50;;;25.30;70.80;;;;;;4976977;28;20035;-91
2021/07/16 04:20:37;;;;;;;6.85;6.15;;;25.30;70.30;;;;;;4976872;28;20027;-91
2021/07/16 04:23:03;;;;;;;6.78;6.07;;;25.40;69.90;;;;;;4976957;28;20023;-91
2021/07/16 04:25:29;;;;;;;6.95;5.85;;;25.50;69.80;;;;;;4977940;28;20035;-92
2021/07/16 04:28:01;;;;;;;8.82;6.50;;;25.60;69.30;;;;;;4978979;28;20038;-92
2021/07/16 04:30:27;;;;;;;8.88;7.15;;;25.70;69.30;;;;;;4978002;28;20118;-91
2021/07/16 04:32:54;;;;;;;7.05;6.35;;;25.80;68.70;;;;;;4978774;28;20034;-91
2021/07/16 04:35:20;;;;;;;10.50;6.88;;;25.90;68.30;;;;;;4977973;28;20031;-91
2021/07/16 04:37:46;;;;;;;7.70;6.43;;;26.00;67.80;;;;;;4977541;28;20034;-91
2021/07/16 04:40:15;;;;;;;6.97;5.60;;;26.10;67.70;;;;;;4977857;28;20027;-92
2021/07/16 04:42:41;;;;;;;11.10;6.22;;;26.20;67.50;;;;;;4977772;28;20033;-91
2021/07/16 04:45:08;;;;;;;6.78;6.10;;;26.30;67.10;;;;;;4977298;28;20039;-91
2021/07/16 04:47:34;;;;;;;9.60;6.90;;;26.40;66.80;;;;;;4977414;28;20122;-91
2021/07/16 04:50:00;;;;;;;7.18;6.05;;;26.50;66.60;;;;;;4977314;28;20059;-91
2021/07/16 04:52:25;;;;;;;6.82;6.18;;;26.60;66.00;;;;;;4977734;28;20023;-91
2021/07/16 04:54:51;;;;;;;8.15;6.70;;;26.70;65.60;;;;;;4976811;28;20042;-92
2021/07/16 04:57:17;;;;;;;7.22;6.53;;;26.70;65.30;;;;;;4975547;28;20408;-91
2021/07/16 04:59:42;;;;;;;6.80;6.13;;;26.80;65.10;;;;;;4979482;28;20102;-91
2021/07/16 05:02:08;;;;;;;7.85;7.15;;;26.90;64.70;;;;;;4983477;28;20031;-92
2021/07/16 05:04:34;;;;;;;8.35;7.55;;;27.00;64.40;;;;;;4982375;28;20022;-91
2021/07/16 05:07:00;;;;;;;8.65;7.55;;;27.10;64.60;;;;;;4983014;28;20070;-90
2021/07/16 05:09:26;;;;;;;8.90;7.25;;;27.20;64.70;;;;;;4983865;28;20158;-91
2021/07/16 05:11:52;;;;;;;8.45;7.65;;;27.30;64.10;;;;;;4981224;28;20102;-92
2021/07/16 05:14:18;;;;;;;8.02;7.28;;;27.40;63.70;;;;;;4978517;28;20054;-92
2021/07/16 05:16:44;;;;;;;8.27;7.47;;;27.50;63.60;;;;;;4978529;28;20045;-92
2021/07/16 05:19:10;;;;;;;8.07;7.28;;;27.60;63.50;;;;;;4976555;28;20542;-91
2021/07/16 05:21:36;;;;;;;10.43;8.15;;;27.70;63.20;;;;;;4976312;28;20398;-91
2021/07/16 05:24:03;;;;;;;7.85;6.38;;;27.80;63.10;;;;;;4977390;28;20027;-91
2021/07/16 05:26:29;;;;;;;8.77;7.10;;;27.90;62.90;;;;;;4976452;28;20039;-91
2021/07/16 05:28:55;;;;;;;8.38;7.57;;;28.00;62.70;;;;;;4976586;28;20062;-91
2021/07/16 05:31:21;;;;;;;8.38;7.55;;;28.10;62.30;;;;;;4976052;28;20035;-92
2021/07/16 05:33:47;;;;;;;7.97;7.28;;;28.20;62.00;;;;;;4975813;28;20061;-91
2021/07/16 05:36:12;;;;;;;9.25;7.50;;;28.30;61.90;;;;;;4976091;28;20027;-90
2021/07/16 05:38:38;;;;;;;8.30;6.75;;;28.40;61.80;;;;;;4976199;28;20026;-91
2021/07/16 05:41:05;;;;;;;6.88;6.18;;;28.50;61.50;;;;;;4976841;28;20161;-91
2021/07/16 05:43:31;;;;;;;7.95;7.18;;;28.60;61.10;;;;;;4975053;28;20038;-91
2021/07/16 05:45:57;;;;;;;9.88;6.53;;;28.70;60.40;;;;;;4974486;28;20529;-91
2021/07/16 05:48:23;;;;;;;7.10;6.40;;;28.90;60.10;;;;;;4976093;28;20023;-91
2021/07/16 05:50:49;;;;;;;6.78;6.15;;;29.00;59.60;;;;;;4975436;28;20125;-91
2021/07/16 05:53:17;;;;;;;6.95;6.15;;;29.10;59.40;;;;;;4975061;28;20030;-91
2021/07/16 05:55:43;;;;;;;7.38;6.03;;;29.20;59.50;;;;;;4975441;28;20034;-91
2021/07/16 05:58:09;;;;;;;6.30;5.07;;;29.30;59.40;;;;;;4974896;28;20095;-91
2021/07/16 06:00:35;;;;;;;5.43;4.93;;;29.40;59.10;;;;;;4974277;28;20126;-91
2021/07/16 06:03:02;;;;;;;6.22;5.45;;;29.50;58.50;;;;;;4974032;28;20027;-91
2021/07/16 06:05:28;;;;;;;5.18;4.68;;;29.70;57.50;;;;;;4973638;28;20401;-91
2021/07/16 06:07:54;;;;;;;6.03;5.40;;;29.80;56.60;;;;;;4974056;28;20082;-91
2021/07/16 06:10:20;;;;;;;6.15;5.40;;;29.80;55.50;;;;;;4975658;28;20030;-91
2021/07/16 06:12:46;;;;;;;5.50;5.00;;;29.90;54.60;;;;;;4974925;28;20042;-91
2021/07/16 06:15:13;;;;;;;7.63;4.80;;;29.90;54.00;;;;;;4975066;28;20027;-91
2021/07/16 06:17:39;;;;;;;6.68;5.00;;;30.00;54.10;;;;;;4974803;28;20034;-91
2021/07/16 06:20:07;;;;;;;7.82;5.05;;;30.00;53.70;;;;;;4974808;28;20027;-91
2021/07/16 06:22:34;;;;;;;5.90;5.30;;;30.00;53.20;;;;;;4974589;28;20033;-91
2021/07/16 06:25:03;;;;;;;5.55;5.05;;;30.00;53.40;;;;;;4974665;28;20039;-91
2021/07/16 06:27:32;;;;;;;5.43;4.90;;;30.00;53.40;;;;;;4975957;28;20038;-91
2021/07/16 06:29:57;;;;;;;7.93;5.57;;;30.00;53.50;;;;;;4974949;28;20023;-92
2021/07/16 06:32:23;;;;;;;5.03;4.53;;;30.10;53.90;;;;;;4975310;28;20517;-91
2021/07/16 06:34:49;;;;;;;7.60;4.95;;;30.20;54.10;;;;;;4975811;28;20027;-91
2021/07/16 06:37:15;;;;;;;6.97;5.90;;;30.30;54.20;;;;;;4974770;28;20031;-91
2021/07/16 06:39:41;;;;;;;6.05;5.35;;;30.40;54.10;;;;;;4974325;28;20121;-91
2021/07/16 06:42:07;;;;;;;6.18;5.50;;;30.50;54.00;;;;;;4973427;28;20053;-91
2021/07/16 06:44:33;;;;;;;9.48;6.47;;;30.60;54.20;;;;;;4974593;28;20085;-90
2021/07/16 06:47:01;;;;;;;8.15;5.70;;;30.70;54.20;;;;;;4974236;28;20038;-91
2021/07/16 06:49:29;;;;;;;7.35;6.03;;;30.70;54.10;;;;;;4974531;28;20027;-90
2021/07/16 06:51:57;;;;;;;6.38;5.38;;;30.80;54.20;;;;;;4973839;28;20461;-91
2021/07/16 06:54:31;;;;;;;8.48;6.60;;;30.80;54.20;;;;;;4974931;28;20385;-90
2021/07/16 06:57:00;;;;;;;7.07;6.35;;;30.90;53.60;;;;;;4976509;28;20084;-90
2021/07/16 06:59:25;;;;;;;6.78;6.07;;;30.80;53.90;;;;;;4974386;28;20114;-91
2021/07/16 07:01:54;;;;;;;8.80;6.95;;;30.80;54.10;;;;;;4973856;28;20065;-91
2021/07/16 07:04:19;;;;;;;7.28;6.57;;;30.80;54.20;;;;;;4969266;28;20497;-92
2021/07/16 07:06:46;;;;;;;7.43;5.88;;;30.80;54.40;;;;;;4975023;28;20046;-92
2021/07/16 07:09:17;;;;;;;7.82;6.97;;;30.80;54.60;;;;;;4965580;28;20031;-91
2021/07/16 07:11:44;;;;;;;7.03;6.32;;;30.80;54.60;;;;;;4973977;28;20116;-91
2021/07/16 07:14:11;;;;;;;7.82;5.80;;;30.80;54.90;;;;;;4973098;28;20022;-91
2021/07/16 07:16:42;;;;;;;7.50;6.07;;;30.90;54.90;;;;;;4978191;28;20090;-92
2021/07/16 07:19:08;;;;;;;7.03;6.30;;;31.10;54.50;;;;;;4983514;28;20038;-89
2021/07/16 07:21:44;;;;;;;7.22;6.53;;;31.20;54.30;;;;;;4983838;28;20027;-90
2021/07/16 07:24:23;;;;;;;7.78;6.95;;;31.20;53.90;;;;;;4988588;28;20023;-90
2021/07/16 07:27:00;;;;;;;8.43;7.40;;;31.30;54.20;;;;;;4989138;28;20027;-92
2021/07/16 07:29:26;;;;;;;7.50;6.68;;;31.30;53.20;;;;;;4978674;28;20062;-90
2021/07/16 07:32:25;;;;;;;7.32;6.63;;;31.40;53.40;;;;;;4977580;28;20030;-90
2021/07/16 07:35:09;;;;;;;;;;;;;;;;;;;;;
2021/07/16 07:37:39;;;;;;;10.65;7.45;;;31.40;53.20;;;;;;4971981;28;20467;-90
2021/07/16 07:40:08;;;;;;;7.90;7.20;;;31.40;53.40;;;;;;4975216;28;20038;-90
2021/07/16 07:42:33;;;;;;;9.40;7.75;;;31.40;53.20;;;;;;4973869;28;20557;-90
2021/07/16 07:45:09;;;;;;;8.02;7.32;;;31.30;53.20;;;;;;4972671;28;20125;-90
2021/07/16 07:47:50;;;;;;;8.52;7.60;;;31.40;53.20;;;;;;4974534;28;20074;-88
2021/07/16 07:50:18;;;;;;;9.90;8.90;;;31.40;53.20;;;;;;4973667;28;20038;-89
2021/07/16 07:52:49;;;;;;;8.02;7.22;;;31.40;53.20;;;;;;4973604;28;20069;-89
2021/07/16 07:56:10;;;;;;;8.50;7.10;;;31.30;54.10;;;;;;4972824;28;20031;-91
2021/07/16 07:58:39;;;;;;;7.93;7.13;;;31.30;53.90;;;;;;4970592;28;20070;-90
2021/07/16 08:01:08;;;;;;;8.80;8.00;;;31.40;53.80;;;;;;4972949;28;20051;-90
2021/07/16 08:03:37;;;;;;;10.20;7.88;;;31.40;54.00;;;;;;4974203;28;20033;-89
2021/07/16 08:06:09;;;;;;;8.80;7.85;;;31.40;54.10;;;;;;4974289;28;20058;-91
2021/07/16 08:08:35;;;;;;;8.50;6.77;;;31.50;54.00;;;;;;4973030;28;20066;-88
2021/07/16 08:11:32;;;;;;;9.07;6.07;;;31.50;54.20;;;;;;4972411;28;20027;-90
2021/07/16 08:13:59;;;;;;;7.53;6.82;;;31.70;54.30;;;;;;4970566;28;20073;-89
2021/07/16 08:16:25;;;;;;;8.07;7.28;;;31.80;53.90;;;;;;4973889;28;20038;-89
2021/07/16 08:18:58;;;;;;;7.68;6.97;;;31.80;54.00;;;;;;4974396;28;20455;-89
2021/07/16 08:21:24;;;;;;;7.55;6.85;;;31.80;54.20;;;;;;4973687;28;20034;-88
2021/07/16 08:23:50;;;;;;;8.23;7.22;;;31.90;54.20;;;;;;4973432;28;20110;-89
2021/07/16 08:26:19;;;;;;;9.90;7.63;;;31.90;54.10;;;;;;4977602;28;20054;-88
2021/07/16 08:28:48;;;;;;;7.95;7.15;;;31.90;54.10;;;;;;4979991;28;20047;-89
2021/07/16 08:31:14;;;;;;;7.50;6.80;;;32.00;54.20;;;;;;4980543;28;20522;-90
2021/07/16 08:33:41;;;;;;;8.25;7.45;;;32.00;54.50;;;;;;4978258;28;20030;-87
2021/07/16 08:36:07;;;;;;;6.88;6.28;;;31.90;54.10;;;;;;4976351;28;20034;-90
2021/07/16 08:38:35;;;;;;;8.95;7.30;;;32.00;54.20;;;;;;4976368;28;20110;-91
2021/07/16 08:41:01;;;;;;;7.18;6.57;;;32.10;54.20;;;;;;4992481;28;20471;-90
2021/07/16 08:43:45;;;;;;;7.13;6.43;;;32.20;54.30;;;;;;4977690;28;20054;-89
2021/07/16 08:46:20;;;;;;;10.30;7.45;;;32.40;54.20;;;;;;4975065;28;20041;-90
2021/07/16 08:48:49;;;;;;;15.02;6.97;;;32.40;53.80;;;;;;4977173;28;20481;-91
2021/07/16 08:51:22;;;;;;;7.40;6.70;;;32.50;54.10;;;;;;4976538;28;20022;-91
2021/07/16 08:53:59;;;;;;;7.63;6.85;;;32.50;53.60;;;;;;4977657;28;20039;-89
2021/07/16 08:56:32;;;;;;;6.68;6.05;;;32.60;53.80;;;;;;4978939;28;20114;-91
2021/07/16 08:58:58;;;;;;;7.28;6.38;;;32.60;53.60;;;;;;4979096;28;20541;-90
2021/07/16 09:01:27;;;;;;;6.97;6.38;;;32.70;53.30;;;;;;4984370;28;20027;-89
2021/07/16 09:03:58;;;;;;;6.03;5.43;;;32.70;53.30;;;;;;4984310;28;20023;-90
2021/07/16 09:06:43;;;;;;;7.55;6.88;;;32.80;53.10;;;;;;4964751;28;20074;-90
2021/07/16 09:09:09;;;;;;;8.75;6.50;;;32.90;52.60;;;;;;4976249;28;20066;-89
2021/07/16 09:14:39;;;;;;;9.18;6.72;;;33.10;52.30;;;;;;5111323;27;20389;-89
2021/07/16 09:17:16;;;;;;;7.00;6.40;;;33.10;50.90;;;;;;5062190;28;20033;-89
2021/07/16 09:19:47;;;;;;;6.50;5.90;;;33.00;51.30;;;;;;5068364;28;20029;-89
2021/07/16 09:22:33;;;;;;;7.32;5.95;;;32.90;51.30;;;;;;5086698;28;20103;-90
2021/07/16 09:25:04;;;;;;;10.75;6.28;;;33.00;51.00;;;;;;5057705;28;20078;-90
2021/07/16 09:27:47;;;;;;;8.30;6.90;;;33.10;50.90;;;;;;5061693;28;20111;-91
2021/07/16 09:30:22;;;;;;;8.70;7.47;;;33.20;50.20;;;;;;5069520;28;20059;-90
2021/07/16 09:33:09;;;;;;;6.60;6.00;;;33.10;50.20;;;;;;5060041;28;20044;-91
2021/07/16 09:35:42;;;;;;;6.05;5.55;;;33.10;50.50;;;;;;5062225;28;20029;-93
2021/07/16 09:38:29;;;;;;;8.40;6.20;;;33.30;50.90;;;;;;5073490;28;20024;-91
2021/07/16 09:44:11;;;;;;;6.47;5.72;;;33.40;50.90;;;;;;5072216;28;20056;-90
2021/07/16 09:47:03;;;;;;;8.25;6.55;;;33.50;51.10;;;;;;5037755;28;20063;-88
2021/07/16 09:49:31;;;;;;;7.15;6.55;;;33.50;50.80;;;;;;5062471;28;20055;-89
2021/07/16 09:52:13;;;;;;;7.05;6.35;;;33.50;50.50;;;;;;5050703;28;20051;-89
2021/07/16 09:55:30;;;;;;;7.13;6.43;;;33.60;51.00;;;;;;5079706;28;20041;-88
2021/07/16 09:57:58;;;;;;;6.47;5.55;;;33.60;51.00;;;;;;5060520;28;20029;-89
2021/07/16 10:00:26;;;;;;;7.53;6.72;;;33.70;51.00;;;;;;5067670;28;20662;-89
2021/07/16 10:03:12;;;;;;;8.90;7.05;;;33.70;50.70;;;;;;5075074;28;20021;-91
2021/07/16 10:05:51;;;;;;;9.65;7.25;;;33.70;50.70;;;;;;5064346;28;20040;-91
2021/07/16 10:08:33;;;;;;;7.70;7.00;;;33.50;50.70;;;;;;5055938;28;20050;-93
2021/07/16 10:11:48;;;;;;;;;;;;;;;;;;;;;
2021/07/16 10:15:18;;;;;;;9.30;8.32;;;33.30;51.10;;;;;;5077192;28;20132;-92
2021/07/16 10:21:07;;;;;;;9.75;7.07;;;33.00;51.40;;;;;;4965055;28;20402;-89
2021/07/16 10:24:02;;;;;;;8.40;7.28;;;33.00;50.30;;;;;;4986430;28;20033;-91
2021/07/16 10:27:05;;;;;;;7.70;6.88;;;33.00;50.80;;;;;;4991718;28;20046;-91
2021/07/16 10:29:45;;;;;;;7.93;7.13;;;32.90;50.00;;;;;;4994226;28;20065;-92
2021/07/16 10:33:06;;;;;;;8.48;7.38;;;32.90;50.70;;;;;;5023681;28;20232;-89
2021/07/16 10:35:45;;;;;;;10.87;7.97;;;32.90;51.00;;;;;;4975262;28;20352;-92
2021/07/16 10:38:53;;;;;;;8.27;7.55;;;33.00;50.90;;;;;;4955230;29;20035;-92
2021/07/16 10:41:57;;;;;;;9.25;7.35;;;33.00;51.50;;;;;;4964314;28;20027;-90
2021/07/16 10:45:25;;;;;;;8.00;7.20;;;33.00;52.00;;;;;;4969553;28;20054;-91
2021/07/16 10:48:37;;;;;;;8.43;7.63;;;33.10;52.40;;;;;;4875857;29;20063;-90
2021/07/16 10:51:27;;;;;;;7.22;6.60;;;33.30;52.10;;;;;;4907122;29;20032;-90
2021/07/16 10:54:04;;;;;;;7.82;7.03;;;33.40;51.90;;;;;;4874846;29;20074;-90
2021/07/16 10:57:31;;;;;;;;;;;;;;;;;;;;;
2021/07/16 11:00:38;;;;;;;7.95;7.15;;;33.30;52.10;;;;;;5042502;28;20101;-90
2021/07/16 11:03:18;;;;;;;9.45;7.28;;;33.30;52.10;;;;;;5034408;28;20033;-90
2021/07/16 11:05:47;;;;;;;7.72;6.68;;;33.40;52.20;;;;;;5030224;28;20031;-90
2021/07/16 11:08:40;;;;;;;8.85;8.05;;;33.50;52.10;;;;;;5036197;28;20439;-90
2021/07/16 11:11:34;;;;;;;;;;;33.50;51.80;;;;;;5035408;28;20029;-90
2021/07/16 11:14:22;;;;;;;8.32;7.47;;;33.40;51.80;;;;;;5028369;28;20287;-91
2021/07/16 11:17:05;;;;;;;8.48;7.68;;;33.30;51.30;;;;;;5034304;28;20041;-90
2021/07/16 11:19:36;;;;;;;8.57;7.68;;;33.30;51.30;;;;;;5038041;28;20079;-92
2021/07/16 11:23:01;;;;;;;11.85;8.45;;;33.30;51.40;;;;;;5037338;28;20060;-90
2021/07/16 11:25:50;;;;;;;7.60;6.88;;;33.30;51.70;;;;;;4976534;28;20039;-89
2021/07/16 11:28:28;;;;;;;7.40;6.60;;;33.30;52.00;;;;;;4957057;28;20102;-91
2021/07/16 11:31:12;;;;;;;;;;;;;;;;;;;;;
2021/07/16 11:33:39;;;;;;;8.52;7.82;;;33.40;51.60;;;;;;4975824;28;20038;-91
2021/07/16 11:36:23;;;;;;;8.23;7.53;;;33.40;51.60;;;;;;5020200;28;20100;-90
2021/07/16 11:39:18;;;;;;;8.80;7.75;;;33.40;52.00;;;;;;5033148;28;20091;-90
2021/07/16 11:42:01;;;;;;;14.05;9.10;;;33.30;52.00;;;;;;5031847;28;20048;-90
2021/07/16 11:44:48;;;;;;;;;;;33.40;52.30;;;;;;5033993;28;20029;-90
2021/07/16 11:47:17;;;;;;;8.73;7.78;;;33.30;52.30;;;;;;5035647;28;19913;-91
2021/07/16 11:49:46;;;;;;;8.75;7.90;;;33.30;52.70;;;;;;5027224;28;20033;-90
2021/07/16 11:52:26;;;;;;;10.57;8.07;;;33.30;52.40;;;;;;5047150;28;20040;-90
2021/07/16 11:55:36;;;;;;;9.40;8.45;;;33.30;52.10;;;;;;5062339;28;20037;-91
2021/07/16 11:58:19;;;;;;;8.70;7.90;;;33.30;52.00;;;;;;5041896;28;20024;-91
2021/07/16 12:01:18;;;;;;;;;;;;;;;;;;;;;
2021/07/16 12:03:47;;;;;;;11.88;9.30;;;33.50;51.90;;;;;;5047207;28;20125;-91
2021/07/16 12:06:21;;;;;;;9.27;8.48;;;33.50;51.80;;;;;;5039543;28;20116;-92
2021/07/16 12:08:48;;;;;;;9.00;8.20;;;33.50;51.80;;;;;;5033155;28;20036;-91
2021/07/16 12:11:26;;;;;;;8.27;7.47;;;33.70;52.20;;;;;;5038098;28;20048;-91
2021/07/16 12:14:11;;;;;;;8.90;8.00;;;33.90;52.20;;;;;;5017853;28;20049;-90
2021/07/16 12:16:45;;;;;;;7.82;7.05;;;34.10;51.60;;;;;;5012622;28;20033;-90
2021/07/16 12:19:11;;;;;;;8.45;7.68;;;34.30;51.60;;;;;;5015666;28;20055;-89
2021/07/16 12:21:43;;;;;;;8.57;7.88;;;34.60;51.40;;;;;;5015087;28;20033;-90
2021/07/16 12:24:17;;;;;;;9.05;8.02;;;35.00;50.50;;;;;;5011452;28;20531;-92
2021/07/16 12:26:43;;;;;;;10.50;9.45;;;35.40;49.70;;;;;;5016901;28;20033;-94
2021/07/16 12:29:09;;;;;;;10.02;9.10;;;35.60;49.50;;;;;;5022670;28;20120;-89
2021/07/16 12:31:36;;;;;;;10.68;9.70;;;35.90;48.70;;;;;;5000081;28;20060;-90
2021/07/16 12:34:20;;;;;;;9.75;8.73;;;36.00;48.20;;;;;;5014660;28;20043;-90
2021/07/16 12:37:19;;;;;;;9.05;8.15;;;36.10;47.10;;;;;;5017013;28;20389;-91
2021/07/16 12:40:00;;;;;;;10.27;9.20;;;36.30;47.20;;;;;;4996816;28;20029;-91
2021/07/16 12:42:40;;;;;;;10.15;8.65;;;36.40;47.50;;;;;;4996352;28;20038;-91
2021/07/16 12:45:10;;;;;;;10.93;9.98;;;36.30;47.40;;;;;;5002076;28;20125;-92
2021/07/16 12:47:54;;;;;;;10.32;9.43;;;36.20;48.00;;;;;;5030278;28;20037;-92
2021/07/16 12:50:24;;;;;;;13.07;11.77;;;36.10;49.20;;;;;;5010346;28;20045;-91
2021/07/16 12:52:55;;;;;;;12.48;11.43;;;36.10;49.90;;;;;;5012701;28;20029;-92
2021/07/16 12:55:49;;;;;;;13.02;11.82;;;36.10;49.30;;;;;;5014051;28;20108;-91
2021/07/16 12:58:18;;;;;;;12.73;11.40;;;35.80;49.00;;;;;;5007751;28;20144;-90
2021/07/16 13:00:57;;;;;;;12.40;11.38;;;35.70;49.80;;;;;;5016450;28;20017;-92
2021/07/16 13:03:24;;;;;;;13.38;12.18;;;35.50;50.20;;;;;;5031693;28;20029;-91
2021/07/16 13:05:59;;;;;;;13.57;12.38;;;35.20;49.90;;;;;;5003113;28;20026;-90
2021/07/16 13:08:30;;;;;;;13.45;11.73;;;35.00;50.50;;;;;;5013633;28;20459;-91
2021/07/16 13:11:23;;;;;;;13.67;11.90;;;35.10;51.40;;;;;;5016031;28;20086;-91
2021/07/16 13:14:16;;;;;;;13.52;12.38;;;35.50;51.80;;;;;;5011639;28;20053;-92
2021/07/16 13:17:00;;;;;;;13.15;11.85;;;35.90;51.80;;;;;;5011697;28;20045;-89
2021/07/16 13:19:31;;;;;;;13.20;11.93;;;36.50;51.20;;;;;;5002693;28;20029;-91
2021/07/16 13:22:34;;;;;;;13.32;12.18;;;36.90;50.50;;;;;;5034619;28;20032;-89
2021/07/16 13:25:09;;;;;;;13.45;11.60;;;37.10;49.70;;;;;;5032114;28;20038;-93
2021/07/16 13:27:47;;;;;;;12.77;11.57;;;37.00;50.00;;;;;;5011583;28;20045;-89